sensor_id;sensor_type;location;lat;lon;timestamp;temperature;humidity
75357;HTU21D;63946;51.986;5.930;2023-12-14T06:52:50;6.74;76.48
75357;HTU21D;63946;51.986;5.930;2023-12-14T06:56:05;6.72;76.15
75357;HTU21D;63946;51.986;5.930;2023-12-14T06:59:04;6.67;76.14
75357;HTU21D;63946;51.986;5.930;2023-12-14T07:20:39;6.55;75.38
75357;HTU21D;63946;51.986;5.930;2023-12-14T07:24:04;6.57;75.50
75357;HTU21D;63946;51.986;5.930;2023-12-14T07:38:57;6.54;75.50
75357;HTU21D;63946;51.986;5.930;2023-12-14T07:45:31;6.55;75.60
75357;HTU21D;63946;51.986;5.930;2023-12-14T07:55:31;6.61;75.49
75357;HTU21D;63946;51.986;5.930;2023-12-14T08:23:44;6.61;74.77
75357;HTU21D;63946;51.986;5.930;2023-12-14T08:27:01;6.59;74.74
75357;HTU21D;63946;51.986;5.930;2023-12-14T08:34:50;6.65;74.71
75357;HTU21D;63946;51.986;5.930;2023-12-14T08:42:31;6.70;74.47
75357;HTU21D;63946;51.986;5.930;2023-12-14T08:53:19;6.71;74.54
75357;HTU21D;63946;51.986;5.930;2023-12-14T08:56:40;6.73;74.67
75357;HTU21D;63946;51.986;5.930;2023-12-14T09:10:06;6.73;74.18
75357;HTU21D;63946;51.986;5.930;2023-12-14T09:12:53;6.73;74.23
75357;HTU21D;63946;51.986;5.930;2023-12-14T09:19:48;6.69;74.11
75357;HTU21D;63946;51.986;5.930;2023-12-14T09:26:51;6.72;73.90
75357;HTU21D;63946;51.986;5.930;2023-12-14T09:30:15;6.73;73.98
75357;HTU21D;63946;51.986;5.930;2023-12-14T09:33:46;6.74;73.83
75357;HTU21D;63946;51.986;5.930;2023-12-14T09:41:03;6.69;73.90
75357;HTU21D;63946;51.986;5.930;2023-12-14T09:44:34;6.66;73.70
75357;HTU21D;63946;51.986;5.930;2023-12-14T10:05:25;6.86;74.12
75357;HTU21D;63946;51.986;5.930;2023-12-14T10:09:09;6.86;73.96
75357;HTU21D;63946;51.986;5.930;2023-12-14T10:12:09;6.86;74.12
75357;HTU21D;63946;51.986;5.930;2023-12-14T10:22:33;6.88;74.19
75357;HTU21D;63946;51.986;5.930;2023-12-14T10:29:21;6.97;74.18
75357;HTU21D;63946;51.986;5.930;2023-12-14T10:33:00;6.96;74.24
75357;HTU21D;63946;51.986;5.930;2023-12-14T10:35:54;6.94;74.30
75357;HTU21D;63946;51.986;5.930;2023-12-14T10:39:32;6.97;74.26
75357;HTU21D;63946;51.986;5.930;2023-12-14T10:46:49;6.98;74.25
75357;HTU21D;63946;51.986;5.930;2023-12-14T11:01:00;6.97;74.35
75357;HTU21D;63946;51.986;5.930;2023-12-14T11:11:19;7.01;74.20
75357;HTU21D;63946;51.986;5.930;2023-12-14T11:22:17;7.04;74.18
75357;HTU21D;63946;51.986;5.930;2023-12-14T11:28:15;7.03;74.31
75357;HTU21D;63946;51.986;5.930;2023-12-14T11:38:34;7.10;74.43
75357;HTU21D;63946;51.986;5.930;2023-12-14T11:42:19;7.13;74.32
75357;HTU21D;63946;51.986;5.930;2023-12-14T11:49:15;7.14;74.10
75357;HTU21D;63946;51.986;5.930;2023-12-14T11:53:13;7.14;74.13
75357;HTU21D;63946;51.986;5.930;2023-12-14T11:56:26;7.14;73.96
75357;HTU21D;63946;51.986;5.930;2023-12-14T11:59:44;7.09;74.03
75357;HTU21D;63946;51.986;5.930;2023-12-14T12:10:30;7.14;74.06
75357;HTU21D;63946;51.986;5.930;2023-12-14T12:14:10;7.22;74.12
75357;HTU21D;63946;51.986;5.930;2023-12-14T12:17:38;7.29;73.85
75357;HTU21D;63946;51.986;5.930;2023-12-14T12:21:06;7.34;73.60
75357;HTU21D;63946;51.986;5.930;2023-12-14T12:24:19;7.38;73.54
75357;HTU21D;63946;51.986;5.930;2023-12-14T12:31:22;7.37;72.83
75357;HTU21D;63946;51.986;5.930;2023-12-14T12:38:24;7.44;72.88
75357;HTU21D;63946;51.986;5.930;2023-12-14T12:41:41;7.45;72.64
75357;HTU21D;63946;51.986;5.930;2023-12-14T12:48:01;7.53;72.58
75357;HTU21D;63946;51.986;5.930;2023-12-14T12:54:37;7.54;72.41
75357;HTU21D;63946;51.986;5.930;2023-12-14T12:57:19;7.56;72.29
75357;HTU21D;63946;51.986;5.930;2023-12-14T13:00:44;7.59;72.09
75357;HTU21D;63946;51.986;5.930;2023-12-14T13:03:29;7.61;72.15
75357;HTU21D;63946;51.986;5.930;2023-12-14T13:06:50;7.59;72.03
75357;HTU21D;63946;51.986;5.930;2023-12-14T13:09:50;7.58;72.03
75357;HTU21D;63946;51.986;5.930;2023-12-14T13:16:31;7.49;71.97
75357;HTU21D;63946;51.986;5.930;2023-12-14T13:19:53;7.50;72.15
75357;HTU21D;63946;51.986;5.930;2023-12-14T13:26:12;7.49;71.61
75357;HTU21D;63946;51.986;5.930;2023-12-14T13:29:51;7.44;71.64
75357;HTU21D;63946;51.986;5.930;2023-12-14T13:33:13;7.38;71.80
75357;HTU21D;63946;51.986;5.930;2023-12-14T13:36:26;7.42;71.94
75357;HTU21D;63946;51.986;5.930;2023-12-14T13:39:45;7.44;71.87
75357;HTU21D;63946;51.986;5.930;2023-12-14T13:42:51;7.43;71.87
75357;HTU21D;63946;51.986;5.930;2023-12-14T13:49:37;7.43;71.88
75357;HTU21D;63946;51.986;5.930;2023-12-14T13:57:07;7.39;71.64
75357;HTU21D;63946;51.986;5.930;2023-12-14T14:15:31;7.29;71.66
75357;HTU21D;63946;51.986;5.930;2023-12-14T14:18:31;7.30;71.87
75357;HTU21D;63946;51.986;5.930;2023-12-14T14:22:10;7.27;71.53
75357;HTU21D;63946;51.986;5.930;2023-12-14T14:25:29;7.29;71.58
75357;HTU21D;63946;51.986;5.930;2023-12-14T14:28:50;7.32;71.65
75357;HTU21D;63946;51.986;5.930;2023-12-14T14:32:05;7.35;71.61
75357;HTU21D;63946;51.986;5.930;2023-12-14T14:41:09;7.55;71.51
75357;HTU21D;63946;51.986;5.930;2023-12-14T14:47:20;7.53;71.47
75357;HTU21D;63946;51.986;5.930;2023-12-14T14:50:46;7.48;71.50
75357;HTU21D;63946;51.986;5.930;2023-12-14T15:01:51;7.29;71.77
75357;HTU21D;63946;51.986;5.930;2023-12-14T15:04:59;7.25;72.00
75357;HTU21D;63946;51.986;5.930;2023-12-14T15:10:57;7.17;72.29
75357;HTU21D;63946;51.986;5.930;2023-12-14T15:14:19;7.15;72.24
75357;HTU21D;63946;51.986;5.930;2023-12-14T15:25:04;7.20;72.56
75357;HTU21D;63946;51.986;5.930;2023-12-14T15:31:08;7.24;72.73
75357;HTU21D;63946;51.986;5.930;2023-12-14T15:44:31;7.20;72.89
75357;HTU21D;63946;51.986;5.930;2023-12-14T15:48:12;7.22;72.78
75357;HTU21D;63946;51.986;5.930;2023-12-14T15:57:56;7.15;73.09
75357;HTU21D;63946;51.986;5.930;2023-12-14T16:04:24;7.11;72.97
75357;HTU21D;63946;51.986;5.930;2023-12-14T16:07:33;7.11;73.02
75357;HTU21D;63946;51.986;5.930;2023-12-14T16:13:41;7.16;73.03
75357;HTU21D;63946;51.986;5.930;2023-12-14T16:17:07;7.16;73.03
75357;HTU21D;63946;51.986;5.930;2023-12-14T16:24:19;7.15;73.28
75357;HTU21D;63946;51.986;5.930;2023-12-14T16:27:18;7.16;73.29
75357;HTU21D;63946;51.986;5.930;2023-12-14T16:33:24;7.17;73.27
75357;HTU21D;63946;51.986;5.930;2023-12-14T16:39:50;7.16;73.20
75357;HTU21D;63946;51.986;5.930;2023-12-14T16:42:52;7.15;73.28
75357;HTU21D;63946;51.986;5.930;2023-12-14T16:45:39;7.17;73.36
75357;HTU21D;63946;51.986;5.930;2023-12-14T16:48:13;7.19;73.33
75357;HTU21D;63946;51.986;5.930;2023-12-14T16:50:42;7.19;73.35
75357;HTU21D;63946;51.986;5.930;2023-12-14T16:53:14;7.19;73.42
75357;HTU21D;63946;51.986;5.930;2023-12-14T16:55:44;7.18;73.46
75357;HTU21D;63946;51.986;5.930;2023-12-14T16:58:21;7.19;73.44
75357;HTU21D;63946;51.986;5.930;2023-12-14T17:01:03;7.17;73.41
75357;HTU21D;63946;51.986;5.930;2023-12-14T17:03:53;7.15;73.54
75357;HTU21D;63946;51.986;5.930;2023-12-14T17:06:32;7.16;73.54
75357;HTU21D;63946;51.986;5.930;2023-12-14T17:09:13;7.15;73.63
75357;HTU21D;63946;51.986;5.930;2023-12-14T17:11:53;7.14;73.71
75357;HTU21D;63946;51.986;5.930;2023-12-14T17:14:23;7.13;73.85
75357;HTU21D;63946;51.986;5.930;2023-12-14T17:16:54;7.16;73.87
75357;HTU21D;63946;51.986;5.930;2023-12-14T17:19:31;7.18;73.90
75357;HTU21D;63946;51.986;5.930;2023-12-14T17:22:02;7.22;73.87
75357;HTU21D;63946;51.986;5.930;2023-12-14T17:24:39;7.23;73.82
75357;HTU21D;63946;51.986;5.930;2023-12-14T17:27:12;7.18;73.84
75357;HTU21D;63946;51.986;5.930;2023-12-14T17:29:45;7.20;73.88
75357;HTU21D;63946;51.986;5.930;2023-12-14T17:32:26;7.17;73.99
75357;HTU21D;63946;51.986;5.930;2023-12-14T17:34:55;7.15;74.17
75357;HTU21D;63946;51.986;5.930;2023-12-14T17:37:35;7.11;74.41
75357;HTU21D;63946;51.986;5.930;2023-12-14T17:40:07;7.11;74.49
75357;HTU21D;63946;51.986;5.930;2023-12-14T17:42:37;7.11;74.61
75357;HTU21D;63946;51.986;5.930;2023-12-14T17:45:10;7.12;74.61
75357;HTU21D;63946;51.986;5.930;2023-12-14T17:47:42;7.11;74.73
75357;HTU21D;63946;51.986;5.930;2023-12-14T17:50:14;7.09;74.89
75357;HTU21D;63946;51.986;5.930;2023-12-14T17:52:43;7.04;75.15
75357;HTU21D;63946;51.986;5.930;2023-12-14T17:55:15;7.04;75.30
75357;HTU21D;63946;51.986;5.930;2023-12-14T17:57:51;7.07;75.42
75357;HTU21D;63946;51.986;5.930;2023-12-14T18:00:28;7.08;75.54
75357;HTU21D;63946;51.986;5.930;2023-12-14T18:03:05;7.03;75.67
75357;HTU21D;63946;51.986;5.930;2023-12-14T18:05:40;6.99;75.89
75357;HTU21D;63946;51.986;5.930;2023-12-14T18:08:11;6.98;76.15
75357;HTU21D;63946;51.986;5.930;2023-12-14T18:10:43;6.99;76.16
75357;HTU21D;63946;51.986;5.930;2023-12-14T18:13:16;7.01;76.27
75357;HTU21D;63946;51.986;5.930;2023-12-14T18:15:49;7.05;76.21
75357;HTU21D;63946;51.986;5.930;2023-12-14T18:18:32;7.04;76.35
75357;HTU21D;63946;51.986;5.930;2023-12-14T18:21:05;7.03;76.30
75357;HTU21D;63946;51.986;5.930;2023-12-14T18:23:45;7.00;76.53
75357;HTU21D;63946;51.986;5.930;2023-12-14T18:26:14;6.99;76.58
75357;HTU21D;63946;51.986;5.930;2023-12-14T18:28:48;6.97;76.76
75357;HTU21D;63946;51.986;5.930;2023-12-14T18:31:57;6.97;76.81
75357;HTU21D;63946;51.986;5.930;2023-12-14T18:34:27;6.98;76.73
75357;HTU21D;63946;51.986;5.930;2023-12-14T18:37:28;6.97;76.76
75357;HTU21D;63946;51.986;5.930;2023-12-14T18:40:04;6.98;76.67
75357;HTU21D;63946;51.986;5.930;2023-12-14T18:42:33;6.99;76.73
75357;HTU21D;63946;51.986;5.930;2023-12-14T18:45:06;6.98;76.65
75357;HTU21D;63946;51.986;5.930;2023-12-14T18:47:44;6.94;76.82
75357;HTU21D;63946;51.986;5.930;2023-12-14T18:50:16;6.93;76.96
75357;HTU21D;63946;51.986;5.930;2023-12-14T18:52:47;6.94;76.94
75357;HTU21D;63946;51.986;5.930;2023-12-14T18:55:38;6.98;76.88
75357;HTU21D;63946;51.986;5.930;2023-12-14T18:58:10;6.96;76.95
75357;HTU21D;63946;51.986;5.930;2023-12-14T19:00:43;6.96;76.86
75357;HTU21D;63946;51.986;5.930;2023-12-14T19:03:18;6.91;77.05
75357;HTU21D;63946;51.986;5.930;2023-12-14T19:05:47;6.88;77.18
75357;HTU21D;63946;51.986;5.930;2023-12-14T19:08:24;6.86;77.27
75357;HTU21D;63946;51.986;5.930;2023-12-14T19:10:54;6.89;77.26
75357;HTU21D;63946;51.986;5.930;2023-12-14T19:13:25;6.94;77.15
75357;HTU21D;63946;51.986;5.930;2023-12-14T19:15:59;6.97;77.07
75357;HTU21D;63946;51.986;5.930;2023-12-14T19:18:38;6.99;77.03
75357;HTU21D;63946;51.986;5.930;2023-12-14T19:21:08;7.00;77.04
75357;HTU21D;63946;51.986;5.930;2023-12-14T19:23:43;7.02;77.05
75357;HTU21D;63946;51.986;5.930;2023-12-14T19:26:20;7.04;76.95
75357;HTU21D;63946;51.986;5.930;2023-12-14T19:29:00;7.05;76.88
75357;HTU21D;63946;51.986;5.930;2023-12-14T19:31:35;7.05;76.92
75357;HTU21D;63946;51.986;5.930;2023-12-14T19:34:10;7.04;76.91
75357;HTU21D;63946;51.986;5.930;2023-12-14T19:36:41;7.09;76.89
75357;HTU21D;63946;51.986;5.930;2023-12-14T19:39:18;7.08;76.82
75357;HTU21D;63946;51.986;5.930;2023-12-14T19:42:02;7.05;76.89
75357;HTU21D;63946;51.986;5.930;2023-12-14T19:44:41;7.01;77.09
75357;HTU21D;63946;51.986;5.930;2023-12-14T19:47:16;7.04;77.04
75357;HTU21D;63946;51.986;5.930;2023-12-14T19:49:53;7.09;76.87
75357;HTU21D;63946;51.986;5.930;2023-12-14T19:52:27;7.10;76.78
75357;HTU21D;63946;51.986;5.930;2023-12-14T19:55:04;7.11;76.75
75357;HTU21D;63946;51.986;5.930;2023-12-14T19:57:40;7.14;76.70
75357;HTU21D;63946;51.986;5.930;2023-12-14T20:00:13;7.12;76.74
75357;HTU21D;63946;51.986;5.930;2023-12-14T20:02:55;7.12;76.76
75357;HTU21D;63946;51.986;5.930;2023-12-14T20:05:27;7.13;76.72
75357;HTU21D;63946;51.986;5.930;2023-12-14T20:08:03;7.13;76.69
75357;HTU21D;63946;51.986;5.930;2023-12-14T20:10:32;7.12;76.67
75357;HTU21D;63946;51.986;5.930;2023-12-14T20:13:09;7.12;76.72
75357;HTU21D;63946;51.986;5.930;2023-12-14T20:15:52;7.11;76.63
75357;HTU21D;63946;51.986;5.930;2023-12-14T20:18:31;7.10;76.59
75357;HTU21D;63946;51.986;5.930;2023-12-14T20:21:05;7.10;76.60
75357;HTU21D;63946;51.986;5.930;2023-12-14T20:23:38;7.12;76.67
75357;HTU21D;63946;51.986;5.930;2023-12-14T20:26:21;7.14;76.63
75357;HTU21D;63946;51.986;5.930;2023-12-14T20:28:57;7.14;76.61
75357;HTU21D;63946;51.986;5.930;2023-12-14T20:31:42;7.14;76.60
75357;HTU21D;63946;51.986;5.930;2023-12-14T20:34:31;7.16;76.66
75357;HTU21D;63946;51.986;5.930;2023-12-14T20:37:09;7.16;76.74
75357;HTU21D;63946;51.986;5.930;2023-12-14T20:39:40;7.16;76.79
75357;HTU21D;63946;51.986;5.930;2023-12-14T20:42:16;7.18;76.79
75357;HTU21D;63946;51.986;5.930;2023-12-14T20:45:03;7.17;76.78
75357;HTU21D;63946;51.986;5.930;2023-12-14T20:47:32;7.16;76.89
75357;HTU21D;63946;51.986;5.930;2023-12-14T20:50:03;7.15;76.87
75357;HTU21D;63946;51.986;5.930;2023-12-14T20:53:01;7.16;76.83
75357;HTU21D;63946;51.986;5.930;2023-12-14T21:00:01;7.11;76.86
75357;HTU21D;63946;51.986;5.930;2023-12-14T21:02:49;7.10;76.82
75357;HTU21D;63946;51.986;5.930;2023-12-14T21:19:45;7.10;76.94
75357;HTU21D;63946;51.986;5.930;2023-12-14T21:26:39;7.12;76.91
75357;HTU21D;63946;51.986;5.930;2023-12-14T21:29:58;7.13;76.96
75357;HTU21D;63946;51.986;5.930;2023-12-14T21:55:08;7.24;76.99
75357;HTU21D;63946;51.986;5.930;2023-12-14T21:58:17;7.24;76.98
75357;HTU21D;63946;51.986;5.930;2023-12-14T22:08:37;7.28;77.05
75357;HTU21D;63946;51.986;5.930;2023-12-14T22:18:48;7.32;77.05
75357;HTU21D;63946;51.986;5.930;2023-12-14T22:24:51;7.34;77.09
75357;HTU21D;63946;51.986;5.930;2023-12-14T22:30:47;7.40;76.97
